sensor_id;sensor_type;location;lat;lon;timestamp;pressure;altitude;pressure_sealevel;temperature;humidity
64628;BME280;59036;50.960;0.314;2022-10-31T00:00:24;100119.36;;;10.89;100.00
64628;BME280;59036;50.960;0.314;2022-10-31T00:02:51;100116.43;;;10.76;100.00
64628;BME280;59036;50.960;0.314;2022-10-31T00:05:18;100116.83;;;10.81;100.00
64628;BME280;59036;50.960;0.314;2022-10-31T00:07:45;100122.93;;;10.82;100.00
64628;BME280;59036;50.960;0.314;2022-10-31T00:10:12;100124.32;;;11.35;100.00
64628;BME280;59036;50.960;0.314;2022-10-31T00:12:40;100125.92;;;11.23;100.00
64628;BME280;59036;50.960;0.314;2022-10-31T00:15:07;100126.80;;;11.39;100.00
64628;BME280;59036;50.960;0.314;2022-10-31T00:17:35;100119.03;;;11.05;100.00
64628;BME280;59036;50.960;0.314;2022-10-31T00:20:03;100119.50;;;10.75;100.00
64628;BME280;59036;50.960;0.314;2022-10-31T00:22:30;100122.53;;;11.05;100.00
64628;BME280;59036;50.960;0.314;2022-10-31T00:24:57;100125.33;;;10.69;100.00
64628;BME280;59036;50.960;0.314;2022-10-31T00:27:24;100125.87;;;10.74;100.00
64628;BME280;59036;50.960;0.314;2022-10-31T00:29:51;100125.13;;;10.86;100.00
64628;BME280;59036;50.960;0.314;2022-10-31T00:32:18;100125.01;;;10.79;100.00
64628;BME280;59036;50.960;0.314;2022-10-31T00:34:45;100122.07;;;10.61;100.00
64628;BME280;59036;50.960;0.314;2022-10-31T00:37:12;100124.36;;;11.04;100.00
64628;BME280;59036;50.960;0.314;2022-10-31T00:39:39;100122.07;;;10.56;100.00
64628;BME280;59036;50.960;0.314;2022-10-31T00:42:06;100117.40;;;10.52;100.00
64628;BME280;59036;50.960;0.314;2022-10-31T00:44:33;100120.94;;;10.36;100.00
64628;BME280;59036;50.960;0.314;2022-10-31T00:47:00;100122.29;;;10.65;100.00
64628;BME280;59036;50.960;0.314;2022-10-31T00:49:27;100121.49;;;10.74;100.00
64628;BME280;59036;50.960;0.314;2022-10-31T00:51:55;100120.22;;;10.45;100.00
64628;BME280;59036;50.960;0.314;2022-10-31T00:54:22;100125.97;;;10.57;100.00
64628;BME280;59036;50.960;0.314;2022-10-31T00:56:50;100126.61;;;10.95;100.00
64628;BME280;59036;50.960;0.314;2022-10-31T00:59:17;100127.45;;;11.07;100.00
64628;BME280;59036;50.960;0.314;2022-10-31T01:01:44;100125.76;;;11.10;100.00
64628;BME280;59036;50.960;0.314;2022-10-31T01:04:12;100125.58;;;10.73;100.00
64628;BME280;59036;50.960;0.314;2022-10-31T01:06:40;100125.67;;;10.67;100.00
64628;BME280;59036;50.960;0.314;2022-10-31T01:09:07;100122.11;;;10.69;100.00
64628;BME280;59036;50.960;0.314;2022-10-31T01:11:34;100117.91;;;10.79;100.00
64628;BME280;59036;50.960;0.314;2022-10-31T01:14:01;100118.73;;;10.94;100.00
64628;BME280;59036;50.960;0.314;2022-10-31T01:16:28;100110.15;;;11.00;100.00
64628;BME280;59036;50.960;0.314;2022-10-31T01:18:55;100109.18;;;10.89;100.00
64628;BME280;59036;50.960;0.314;2022-10-31T01:21:24;100114.80;;;10.80;100.00
64628;BME280;59036;50.960;0.314;2022-10-31T01:23:53;100120.04;;;11.09;100.00
64628;BME280;59036;50.960;0.314;2022-10-31T01:26:22;100118.01;;;10.81;100.00
64628;BME280;59036;50.960;0.314;2022-10-31T01:28:50;100116.52;;;10.82;100.00
64628;BME280;59036;50.960;0.314;2022-10-31T01:31:20;100115.22;;;10.27;100.00
64628;BME280;59036;50.960;0.314;2022-10-31T01:33:48;100114.08;;;10.50;100.00
64628;BME280;59036;50.960;0.314;2022-10-31T01:36:18;100112.89;;;10.53;100.00
64628;BME280;59036;50.960;0.314;2022-10-31T01:38:45;100109.91;;;10.60;100.00
64628;BME280;59036;50.960;0.314;2022-10-31T01:41:15;100111.45;;;10.69;100.00
64628;BME280;59036;50.960;0.314;2022-10-31T01:43:45;100111.64;;;10.88;100.00
64628;BME280;59036;50.960;0.314;2022-10-31T01:46:13;100113.22;;;10.72;100.00
64628;BME280;59036;50.960;0.314;2022-10-31T01:48:42;100114.50;;;10.75;100.00
64628;BME280;59036;50.960;0.314;2022-10-31T01:51:11;100109.80;;;11.18;100.00
64628;BME280;59036;50.960;0.314;2022-10-31T01:53:42;100105.77;;;10.94;100.00
64628;BME280;59036;50.960;0.314;2022-10-31T01:56:12;100104.44;;;10.96;100.00
64628;BME280;59036;50.960;0.314;2022-10-31T01:58:40;100098.05;;;10.90;100.00
64628;BME280;59036;50.960;0.314;2022-10-31T02:01:07;100095.86;;;10.69;100.00
64628;BME280;59036;50.960;0.314;2022-10-31T02:03:35;100094.67;;;10.65;100.00
64628;BME280;59036;50.960;0.314;2022-10-31T02:06:03;100092.75;;;10.52;100.00
64628;BME280;59036;50.960;0.314;2022-10-31T02:08:34;100093.09;;;10.95;100.00
64628;BME280;59036;50.960;0.314;2022-10-31T02:11:01;100090.67;;;10.71;100.00
64628;BME280;59036;50.960;0.314;2022-10-31T02:13:30;100088.76;;;10.63;100.00
64628;BME280;59036;50.960;0.314;2022-10-31T02:15:59;100085.45;;;10.78;100.00
64628;BME280;59036;50.960;0.314;2022-10-31T02:18:29;100081.76;;;11.18;100.00
64628;BME280;59036;50.960;0.314;2022-10-31T02:21:07;100085.35;;;11.09;100.00
64628;BME280;59036;50.960;0.314;2022-10-31T02:24:46;100082.51;;;10.78;100.00
64628;BME280;59036;50.960;0.314;2022-10-31T02:28:39;100087.12;;;10.49;100.00
64628;BME280;59036;50.960;0.314;2022-10-31T02:31:20;100089.63;;;10.43;100.00
64628;BME280;59036;50.960;0.314;2022-10-31T02:33:52;100091.12;;;10.17;100.00
64628;BME280;59036;50.960;0.314;2022-10-31T02:36:24;100089.05;;;10.25;100.00
64628;BME280;59036;50.960;0.314;2022-10-31T02:39:02;100082.09;;;10.65;100.00
64628;BME280;59036;50.960;0.314;2022-10-31T02:41:46;100082.47;;;10.39;100.00
64628;BME280;59036;50.960;0.314;2022-10-31T02:44:20;100076.22;;;10.85;100.00
64628;BME280;59036;50.960;0.314;2022-10-31T02:46:51;100079.57;;;10.91;100.00
64628;BME280;59036;50.960;0.314;2022-10-31T02:49:26;100078.90;;;10.51;100.00
64628;BME280;59036;50.960;0.314;2022-10-31T02:51:55;100078.39;;;10.01;100.00
64628;BME280;59036;50.960;0.314;2022-10-31T02:54:24;100075.87;;;10.02;100.00
64628;BME280;59036;50.960;0.314;2022-10-31T02:56:56;100074.29;;;10.28;100.00
64628;BME280;59036;50.960;0.314;2022-10-31T02:59:25;100071.63;;;10.27;100.00
64628;BME280;59036;50.960;0.314;2022-10-31T03:02:05;100068.46;;;10.22;100.00
64628;BME280;59036;50.960;0.314;2022-10-31T03:05:04;100071.01;;;9.75;100.00
64628;BME280;59036;50.960;0.314;2022-10-31T03:07:41;100070.80;;;10.03;100.00
64628;BME280;59036;50.960;0.314;2022-10-31T03:10:16;100066.30;;;9.97;100.00
64628;BME280;59036;50.960;0.314;2022-10-31T03:12:53;100062.87;;;10.26;100.00
64628;BME280;59036;50.960;0.314;2022-10-31T03:15:26;100060.45;;;10.36;100.00
64628;BME280;59036;50.960;0.314;2022-10-31T03:17:57;100061.91;;;10.03;100.00
64628;BME280;59036;50.960;0.314;2022-10-31T03:20:31;100060.63;;;10.20;100.00
64628;BME280;59036;50.960;0.314;2022-10-31T03:23:02;100060.61;;;9.93;100.00
64628;BME280;59036;50.960;0.314;2022-10-31T03:25:32;100059.79;;;10.19;100.00
64628;BME280;59036;50.960;0.314;2022-10-31T03:28:03;100062.89;;;10.30;100.00
64628;BME280;59036;50.960;0.314;2022-10-31T03:30:33;100058.87;;;10.02;100.00
64628;BME280;59036;50.960;0.314;2022-10-31T03:33:06;100054.84;;;10.33;100.00
64628;BME280;59036;50.960;0.314;2022-10-31T03:35:35;100055.09;;;10.48;100.00
64628;BME280;59036;50.960;0.314;2022-10-31T03:38:03;100046.15;;;10.09;100.00
64628;BME280;59036;50.960;0.314;2022-10-31T03:40:33;100048.05;;;9.89;100.00
64628;BME280;59036;50.960;0.314;2022-10-31T03:43:05;100048.73;;;9.95;100.00
64628;BME280;59036;50.960;0.314;2022-10-31T03:45:43;100048.48;;;9.95;100.00
64628;BME280;59036;50.960;0.314;2022-10-31T03:48:12;100045.84;;;9.72;100.00
64628;BME280;59036;50.960;0.314;2022-10-31T03:50:44;100043.32;;;9.85;100.00
64628;BME280;59036;50.960;0.314;2022-10-31T03:53:17;100039.77;;;10.10;100.00
64628;BME280;59036;50.960;0.314;2022-10-31T03:55:50;100040.37;;;10.14;100.00
64628;BME280;59036;50.960;0.314;2022-10-31T03:58:22;100044.32;;;9.95;100.00
64628;BME280;59036;50.960;0.314;2022-10-31T04:00:52;100048.01;;;9.83;100.00
64628;BME280;59036;50.960;0.314;2022-10-31T04:03:23;100044.25;;;10.07;100.00
64628;BME280;59036;50.960;0.314;2022-10-31T04:05:54;100040.04;;;10.30;100.00
64628;BME280;59036;50.960;0.314;2022-10-31T04:08:28;100042.70;;;10.40;100.00
64628;BME280;59036;50.960;0.314;2022-10-31T04:11:03;100038.91;;;10.20;100.00
64628;BME280;59036;50.960;0.314;2022-10-31T04:13:33;100039.61;;;10.65;100.00
64628;BME280;59036;50.960;0.314;2022-10-31T04:16:03;100042.15;;;11.23;100.00
64628;BME280;59036;50.960;0.314;2022-10-31T04:18:30;100045.56;;;11.30;100.00
64628;BME280;59036;50.960;0.314;2022-10-31T04:21:02;100044.06;;;10.78;100.00
64628;BME280;59036;50.960;0.314;2022-10-31T04:23:29;100040.50;;;10.61;100.00
64628;BME280;59036;50.960;0.314;2022-10-31T04:25:57;100038.25;;;10.65;100.00
64628;BME280;59036;50.960;0.314;2022-10-31T04:28:24;100041.86;;;11.10;100.00
64628;BME280;59036;50.960;0.314;2022-10-31T04:30:51;100040.08;;;11.63;96.60
64628;BME280;59036;50.960;0.314;2022-10-31T04:33:19;100034.99;;;11.78;94.86
64628;BME280;59036;50.960;0.314;2022-10-31T04:35:46;100034.94;;;11.73;95.84
64628;BME280;59036;50.960;0.314;2022-10-31T04:38:13;100035.12;;;11.12;98.07
64628;BME280;59036;50.960;0.314;2022-10-31T04:40:40;100032.51;;;11.10;97.30
64628;BME280;59036;50.960;0.314;2022-10-31T04:43:07;100033.99;;;11.23;98.49
64628;BME280;59036;50.960;0.314;2022-10-31T04:45:34;100032.86;;;10.70;100.00
64628;BME280;59036;50.960;0.314;2022-10-31T04:48:01;100030.07;;;10.44;100.00
64628;BME280;59036;50.960;0.314;2022-10-31T04:50:28;100024.81;;;10.10;100.00
64628;BME280;59036;50.960;0.314;2022-10-31T04:52:55;100022.45;;;9.98;100.00
64628;BME280;59036;50.960;0.314;2022-10-31T04:55:22;100019.36;;;10.32;100.00
64628;BME280;59036;50.960;0.314;2022-10-31T04:57:49;100017.72;;;10.65;100.00
64628;BME280;59036;50.960;0.314;2022-10-31T05:00:19;100015.44;;;10.61;100.00
64628;BME280;59036;50.960;0.314;2022-10-31T05:02:47;100017.43;;;10.16;100.00
64628;BME280;59036;50.960;0.314;2022-10-31T05:05:16;100016.99;;;10.94;100.00
64628;BME280;59036;50.960;0.314;2022-10-31T05:07:45;100014.71;;;10.65;100.00
64628;BME280;59036;50.960;0.314;2022-10-31T05:10:14;100018.80;;;10.09;100.00
64628;BME280;59036;50.960;0.314;2022-10-31T05:12:46;100018.97;;;10.51;100.00
64628;BME280;59036;50.960;0.314;2022-10-31T05:15:15;100018.14;;;10.61;100.00
64628;BME280;59036;50.960;0.314;2022-10-31T05:17:43;100018.56;;;10.79;100.00
64628;BME280;59036;50.960;0.314;2022-10-31T05:20:11;100015.65;;;10.62;100.00
64628;BME280;59036;50.960;0.314;2022-10-31T05:22:42;100015.66;;;10.87;100.00
64628;BME280;59036;50.960;0.314;2022-10-31T05:25:09;100014.70;;;10.43;100.00
64628;BME280;59036;50.960;0.314;2022-10-31T05:27:39;100013.59;;;10.27;100.00
64628;BME280;59036;50.960;0.314;2022-10-31T05:30:06;100011.89;;;10.20;100.00
64628;BME280;59036;50.960;0.314;2022-10-31T05:32:37;100013.71;;;10.41;100.00
64628;BME280;59036;50.960;0.314;2022-10-31T05:35:05;100010.12;;;10.07;100.00
64628;BME280;59036;50.960;0.314;2022-10-31T05:37:32;100008.87;;;10.12;100.00
64628;BME280;59036;50.960;0.314;2022-10-31T05:39:59;100007.40;;;10.27;100.00
64628;BME280;59036;50.960;0.314;2022-10-31T05:42:26;100004.97;;;9.88;100.00
64628;BME280;59036;50.960;0.314;2022-10-31T05:44:53;100001.93;;;9.76;100.00
64628;BME280;59036;50.960;0.314;2022-10-31T05:47:20;99999.39;;;10.22;100.00
64628;BME280;59036;50.960;0.314;2022-10-31T05:49:47;99997.04;;;9.77;100.00
64628;BME280;59036;50.960;0.314;2022-10-31T05:52:15;99993.82;;;9.87;100.00
64628;BME280;59036;50.960;0.314;2022-10-31T05:54:42;99994.82;;;9.83;100.00
64628;BME280;59036;50.960;0.314;2022-10-31T05:57:09;99997.14;;;9.80;100.00
64628;BME280;59036;50.960;0.314;2022-10-31T05:59:36;99993.77;;;10.57;100.00
64628;BME280;59036;50.960;0.314;2022-10-31T06:02:05;99996.56;;;10.37;100.00
64628;BME280;59036;50.960;0.314;2022-10-31T06:04:33;99998.49;;;10.43;100.00
64628;BME280;59036;50.960;0.314;2022-10-31T06:07:00;99996.28;;;10.49;100.00
64628;BME280;59036;50.960;0.314;2022-10-31T06:09:27;99997.62;;;10.31;100.00
64628;BME280;59036;50.960;0.314;2022-10-31T06:11:54;99993.88;;;10.70;100.00
64628;BME280;59036;50.960;0.314;2022-10-31T06:14:21;99993.38;;;9.96;100.00
64628;BME280;59036;50.960;0.314;2022-10-31T06:16:48;99987.39;;;10.30;100.00
64628;BME280;59036;50.960;0.314;2022-10-31T06:19:15;99984.85;;;10.55;100.00
64628;BME280;59036;50.960;0.314;2022-10-31T06:21:42;99984.98;;;10.44;100.00
64628;BME280;59036;50.960;0.314;2022-10-31T06:24:09;99985.43;;;10.14;100.00
64628;BME280;59036;50.960;0.314;2022-10-31T06:26:36;99980.21;;;10.50;100.00
64628;BME280;59036;50.960;0.314;2022-10-31T06:29:04;99977.92;;;10.08;100.00
64628;BME280;59036;50.960;0.314;2022-10-31T06:31:31;99978.95;;;10.08;100.00
64628;BME280;59036;50.960;0.314;2022-10-31T06:33:58;99976.40;;;10.47;100.00
64628;BME280;59036;50.960;0.314;2022-10-31T06:36:24;99973.93;;;10.99;100.00
64628;BME280;59036;50.960;0.314;2022-10-31T06:38:51;99974.59;;;10.46;100.00
64628;BME280;59036;50.960;0.314;2022-10-31T06:41:19;99975.99;;;10.33;100.00
64628;BME280;59036;50.960;0.314;2022-10-31T06:43:47;99972.15;;;10.11;100.00
64628;BME280;59036;50.960;0.314;2022-10-31T06:46:14;99971.56;;;10.38;100.00
64628;BME280;59036;50.960;0.314;2022-10-31T06:48:41;99967.90;;;10.10;100.00
64628;BME280;59036;50.960;0.314;2022-10-31T06:51:08;99970.30;;;10.41;100.00
64628;BME280;59036;50.960;0.314;2022-10-31T06:53:35;99967.84;;;10.40;100.00
64628;BME280;59036;50.960;0.314;2022-10-31T06:56:03;99964.08;;;10.83;100.00
64628;BME280;59036;50.960;0.314;2022-10-31T06:58:31;99965.49;;;10.61;100.00
64628;BME280;59036;50.960;0.314;2022-10-31T07:00:59;99961.37;;;10.81;100.00
64628;BME280;59036;50.960;0.314;2022-10-31T07:03:26;99959.45;;;10.28;100.00
64628;BME280;59036;50.960;0.314;2022-10-31T07:05:55;99956.68;;;10.01;100.00
64628;BME280;59036;50.960;0.314;2022-10-31T07:08:22;99955.13;;;9.99;100.00
64628;BME280;59036;50.960;0.314;2022-10-31T07:10:52;99955.14;;;9.92;100.00
64628;BME280;59036;50.960;0.314;2022-10-31T07:13:20;99953.19;;;9.80;100.00
64628;BME280;59036;50.960;0.314;2022-10-31T07:15:47;99954.11;;;9.77;100.00
64628;BME280;59036;50.960;0.314;2022-10-31T07:18:14;99954.26;;;9.86;100.00
64628;BME280;59036;50.960;0.314;2022-10-31T07:20:41;99953.41;;;9.65;100.00
64628;BME280;59036;50.960;0.314;2022-10-31T07:23:09;99952.84;;;9.66;100.00
64628;BME280;59036;50.960;0.314;2022-10-31T07:25:36;99951.70;;;9.98;100.00
64628;BME280;59036;50.960;0.314;2022-10-31T07:28:04;99955.11;;;9.69;100.00
64628;BME280;59036;50.960;0.314;2022-10-31T07:30:32;99950.98;;;9.59;100.00
64628;BME280;59036;50.960;0.314;2022-10-31T07:33:00;99950.65;;;10.00;100.00
64628;BME280;59036;50.960;0.314;2022-10-31T07:35:28;99946.50;;;9.88;100.00
64628;BME280;59036;50.960;0.314;2022-10-31T07:37:56;99937.98;;;10.26;100.00
64628;BME280;59036;50.960;0.314;2022-10-31T07:40:23;99934.97;;;10.26;100.00
64628;BME280;59036;50.960;0.314;2022-10-31T07:42:52;99937.23;;;10.64;100.00
64628;BME280;59036;50.960;0.314;2022-10-31T07:45:20;99937.09;;;10.18;100.00
64628;BME280;59036;50.960;0.314;2022-10-31T07:47:48;99937.21;;;10.53;100.00
64628;BME280;59036;50.960;0.314;2022-10-31T07:50:18;99941.85;;;10.45;100.00
64628;BME280;59036;50.960;0.314;2022-10-31T07:52:45;99937.27;;;10.65;100.00
64628;BME280;59036;50.960;0.314;2022-10-31T07:55:14;99939.59;;;10.46;100.00
64628;BME280;59036;50.960;0.314;2022-10-31T07:57:41;99936.90;;;10.42;100.00
64628;BME280;59036;50.960;0.314;2022-10-31T08:00:10;99937.76;;;10.30;100.00
64628;BME280;59036;50.960;0.314;2022-10-31T08:02:37;99938.24;;;10.39;100.00
64628;BME280;59036;50.960;0.314;2022-10-31T08:05:05;99941.31;;;10.87;100.00
64628;BME280;59036;50.960;0.314;2022-10-31T08:07:36;99941.55;;;10.80;100.00
64628;BME280;59036;50.960;0.314;2022-10-31T08:10:04;99937.25;;;10.33;100.00
64628;BME280;59036;50.960;0.314;2022-10-31T08:12:31;99938.16;;;10.47;100.00
64628;BME280;59036;50.960;0.314;2022-10-31T08:14:58;99937.28;;;10.63;100.00
64628;BME280;59036;50.960;0.314;2022-10-31T08:17:25;99938.09;;;10.41;100.00
64628;BME280;59036;50.960;0.314;2022-10-31T08:19:52;99936.87;;;10.39;100.00
64628;BME280;59036;50.960;0.314;2022-10-31T08:22:19;99931.87;;;10.60;100.00
64628;BME280;59036;50.960;0.314;2022-10-31T08:24:47;99933.60;;;10.53;100.00
64628;BME280;59036;50.960;0.314;2022-10-31T08:27:14;99930.99;;;10.43;100.00
64628;BME280;59036;50.960;0.314;2022-10-31T08:29:41;99927.61;;;10.91;100.00
64628;BME280;59036;50.960;0.314;2022-10-31T08:32:08;99922.65;;;10.67;100.00
64628;BME280;59036;50.960;0.314;2022-10-31T08:34:35;99924.77;;;10.15;100.00
64628;BME280;59036;50.960;0.314;2022-10-31T08:37:03;99925.75;;;10.41;100.00
64628;BME280;59036;50.960;0.314;2022-10-31T08:39:30;99924.64;;;10.56;100.00
64628;BME280;59036;50.960;0.314;2022-10-31T08:41:56;99926.77;;;11.22;100.00
64628;BME280;59036;50.960;0.314;2022-10-31T08:44:24;99923.12;;;11.35;100.00
64628;BME280;59036;50.960;0.314;2022-10-31T08:46:51;99920.56;;;11.63;100.00
64628;BME280;59036;50.960;0.314;2022-10-31T08:49:17;99916.13;;;11.12;100.00
64628;BME280;59036;50.960;0.314;2022-10-31T08:51:47;99909.92;;;11.26;100.00
64628;BME280;59036;50.960;0.314;2022-10-31T08:54:14;99901.84;;;11.15;100.00
64628;BME280;59036;50.960;0.314;2022-10-31T08:56:41;99900.37;;;11.23;100.00
64628;BME280;59036;50.960;0.314;2022-10-31T08:59:08;99906.34;;;11.30;100.00
64628;BME280;59036;50.960;0.314;2022-10-31T09:01:35;99900.00;;;11.14;100.00
64628;BME280;59036;50.960;0.314;2022-10-31T09:04:02;99896.12;;;11.14;100.00
64628;BME280;59036;50.960;0.314;2022-10-31T09:06:29;99894.97;;;11.47;100.00
64628;BME280;59036;50.960;0.314;2022-10-31T09:08:57;99890.65;;;11.61;100.00
64628;BME280;59036;50.960;0.314;2022-10-31T09:11:24;99892.97;;;11.32;100.00
64628;BME280;59036;50.960;0.314;2022-10-31T09:13:52;99886.14;;;11.54;100.00
64628;BME280;59036;50.960;0.314;2022-10-31T09:16:19;99881.97;;;11.60;100.00
64628;BME280;59036;50.960;0.314;2022-10-31T09:18:46;99875.50;;;11.52;100.00
64628;BME280;59036;50.960;0.314;2022-10-31T09:21:13;99866.30;;;11.64;100.00
64628;BME280;59036;50.960;0.314;2022-10-31T09:23:41;99863.34;;;11.48;100.00
64628;BME280;59036;50.960;0.314;2022-10-31T09:26:08;99856.93;;;11.53;100.00
64628;BME280;59036;50.960;0.314;2022-10-31T09:28:35;99854.14;;;11.53;100.00
64628;BME280;59036;50.960;0.314;2022-10-31T09:31:02;99855.21;;;11.95;100.00
64628;BME280;59036;50.960;0.314;2022-10-31T09:33:28;99855.98;;;11.72;100.00
64628;BME280;59036;50.960;0.314;2022-10-31T09:35:58;99853.76;;;11.62;100.00
64628;BME280;59036;50.960;0.314;2022-10-31T09:38:25;99848.89;;;11.78;100.00
64628;BME280;59036;50.960;0.314;2022-10-31T09:40:57;99844.76;;;11.76;100.00
64628;BME280;59036;50.960;0.314;2022-10-31T09:43:33;99841.22;;;11.91;100.00
64628;BME280;59036;50.960;0.314;2022-10-31T09:46:09;99837.65;;;12.06;100.00
64628;BME280;59036;50.960;0.314;2022-10-31T09:48:50;99835.19;;;11.65;100.00
64628;BME280;59036;50.960;0.314;2022-10-31T09:51:23;99814.33;;;11.93;100.00
64628;BME280;59036;50.960;0.314;2022-10-31T09:53:56;99817.95;;;12.09;100.00
64628;BME280;59036;50.960;0.314;2022-10-31T09:56:25;99817.50;;;12.00;100.00
64628;BME280;59036;50.960;0.314;2022-10-31T09:58:57;99818.48;;;12.04;100.00
64628;BME280;59036;50.960;0.314;2022-10-31T10:01:39;99810.89;;;12.20;100.00
64628;BME280;59036;50.960;0.314;2022-10-31T10:04:19;99806.42;;;12.03;100.00
64628;BME280;59036;50.960;0.314;2022-10-31T10:06:52;99814.92;;;12.08;100.00
64628;BME280;59036;50.960;0.314;2022-10-31T10:09:24;99810.24;;;12.64;100.00
64628;BME280;59036;50.960;0.314;2022-10-31T10:12:01;99810.09;;;12.80;100.00
64628;BME280;59036;50.960;0.314;2022-10-31T10:14:41;99803.48;;;12.87;99.31
64628;BME280;59036;50.960;0.314;2022-10-31T10:17:20;99802.53;;;12.82;98.45
64628;BME280;59036;50.960;0.314;2022-10-31T10:19:59;99804.29;;;12.77;96.74
64628;BME280;59036;50.960;0.314;2022-10-31T10:22:38;99804.58;;;12.47;97.89
64628;BME280;59036;50.960;0.314;2022-10-31T10:25:15;99806.46;;;12.26;97.92
64628;BME280;59036;50.960;0.314;2022-10-31T10:27:51;99801.81;;;12.35;97.24
64628;BME280;59036;50.960;0.314;2022-10-31T10:30:23;99796.62;;;11.97;98.08
64628;BME280;59036;50.960;0.314;2022-10-31T10:32:54;99800.89;;;12.41;97.45
64628;BME280;59036;50.960;0.314;2022-10-31T10:35:26;99797.99;;;12.53;95.35
64628;BME280;59036;50.960;0.314;2022-10-31T10:37:58;99802.93;;;12.45;97.54
64628;BME280;59036;50.960;0.314;2022-10-31T10:40:28;99805.35;;;12.52;96.75
64628;BME280;59036;50.960;0.314;2022-10-31T10:43:01;99803.07;;;12.84;94.79
64628;BME280;59036;50.960;0.314;2022-10-31T10:45:37;99801.35;;;12.83;95.27
64628;BME280;59036;50.960;0.314;2022-10-31T10:48:10;99794.42;;;12.69;94.96
64628;BME280;59036;50.960;0.314;2022-10-31T10:50:46;99787.73;;;12.70;96.98
64628;BME280;59036;50.960;0.314;2022-10-31T10:53:28;99786.26;;;13.15;95.69
64628;BME280;59036;50.960;0.314;2022-10-31T10:56:08;99770.77;;;12.81;96.64
64628;BME280;59036;50.960;0.314;2022-10-31T10:58:38;99774.71;;;12.49;95.82
64628;BME280;59036;50.960;0.314;2022-10-31T11:01:11;99777.68;;;11.99;98.18
64628;BME280;59036;50.960;0.314;2022-10-31T11:03:39;99769.80;;;12.13;99.80
64628;BME280;59036;50.960;0.314;2022-10-31T11:06:17;99761.14;;;12.51;98.78
64628;BME280;59036;50.960;0.314;2022-10-31T11:08:44;99753.01;;;12.68;98.49
64628;BME280;59036;50.960;0.314;2022-10-31T11:11:25;99750.35;;;12.39;99.11
64628;BME280;59036;50.960;0.314;2022-10-31T11:13:59;99745.51;;;12.47;98.42
64628;BME280;59036;50.960;0.314;2022-10-31T11:16:30;99747.61;;;11.75;100.00
64628;BME280;59036;50.960;0.314;2022-10-31T11:19:08;99743.80;;;12.20;100.00
64628;BME280;59036;50.960;0.314;2022-10-31T11:21:36;99735.25;;;12.77;98.68
64628;BME280;59036;50.960;0.314;2022-10-31T11:24:08;99737.78;;;12.24;98.55
64628;BME280;59036;50.960;0.314;2022-10-31T11:26:40;99735.46;;;11.90;99.68
64628;BME280;59036;50.960;0.314;2022-10-31T11:29:13;99731.17;;;12.03;100.00
64628;BME280;59036;50.960;0.314;2022-10-31T11:31:42;99724.42;;;12.24;99.92
64628;BME280;59036;50.960;0.314;2022-10-31T11:34:24;99714.73;;;12.14;100.00
64628;BME280;59036;50.960;0.314;2022-10-31T11:36:54;99701.97;;;12.81;96.97
64628;BME280;59036;50.960;0.314;2022-10-31T11:39:24;99691.53;;;13.21;96.35
64628;BME280;59036;50.960;0.314;2022-10-31T11:41:53;99690.01;;;13.27;95.08
64628;BME280;59036;50.960;0.314;2022-10-31T11:44:23;99682.04;;;13.02;92.94
64628;BME280;59036;50.960;0.314;2022-10-31T11:46:54;99685.62;;;13.12;94.64
64628;BME280;59036;50.960;0.314;2022-10-31T11:49:27;99678.08;;;13.19;94.77
64628;BME280;59036;50.960;0.314;2022-10-31T11:51:57;99668.55;;;13.07;94.73
64628;BME280;59036;50.960;0.314;2022-10-31T11:54:26;99669.09;;;13.07;95.44
64628;BME280;59036;50.960;0.314;2022-10-31T11:56:54;99658.87;;;12.78;95.55
64628;BME280;59036;50.960;0.314;2022-10-31T11:59:26;99652.50;;;12.43;95.15
64628;BME280;59036;50.960;0.314;2022-10-31T12:01:54;99639.09;;;12.22;95.68
64628;BME280;59036;50.960;0.314;2022-10-31T12:04:30;99637.80;;;12.53;96.30
64628;BME280;59036;50.960;0.314;2022-10-31T12:06:58;99630.95;;;12.89;94.84
64628;BME280;59036;50.960;0.314;2022-10-31T12:09:28;99626.40;;;12.68;93.10
64628;BME280;59036;50.960;0.314;2022-10-31T12:12:07;99622.86;;;12.92;93.36
64628;BME280;59036;50.960;0.314;2022-10-31T12:14:43;99611.85;;;12.59;94.96
64628;BME280;59036;50.960;0.314;2022-10-31T12:17:15;99614.73;;;12.47;96.15
64628;BME280;59036;50.960;0.314;2022-10-31T12:19:52;99609.77;;;12.73;95.57
64628;BME280;59036;50.960;0.314;2022-10-31T12:22:27;99612.12;;;12.25;98.00
64628;BME280;59036;50.960;0.314;2022-10-31T12:25:09;99606.97;;;12.78;95.41
64628;BME280;59036;50.960;0.314;2022-10-31T12:27:55;99593.98;;;12.59;95.08
64628;BME280;59036;50.960;0.314;2022-10-31T12:30:34;99591.13;;;12.78;95.86
64628;BME280;59036;50.960;0.314;2022-10-31T12:33:22;99587.01;;;12.81;93.35
64628;BME280;59036;50.960;0.314;2022-10-31T12:35:59;99576.54;;;13.30;90.95
64628;BME280;59036;50.960;0.314;2022-10-31T12:38:46;99563.56;;;13.10;92.69
64628;BME280;59036;50.960;0.314;2022-10-31T12:41:26;99553.81;;;12.53;91.46
64628;BME280;59036;50.960;0.314;2022-10-31T12:44:06;99542.79;;;12.94;91.47
64628;BME280;59036;50.960;0.314;2022-10-31T12:46:51;99542.19;;;12.58;93.72
64628;BME280;59036;50.960;0.314;2022-10-31T12:49:42;99534.80;;;12.34;94.39
64628;BME280;59036;50.960;0.314;2022-10-31T12:52:23;99529.05;;;12.58;93.73
64628;BME280;59036;50.960;0.314;2022-10-31T12:55:08;99527.82;;;12.78;93.88
64628;BME280;59036;50.960;0.314;2022-10-31T12:57:40;99521.52;;;12.94;93.16
64628;BME280;59036;50.960;0.314;2022-10-31T13:00:13;99518.13;;;12.56;93.16
64628;BME280;59036;50.960;0.314;2022-10-31T13:02:46;99518.43;;;12.33;94.76
64628;BME280;59036;50.960;0.314;2022-10-31T13:05:22;99517.36;;;12.23;95.55